sensor_id;sensor_type;location;lat;lon;timestamp;P1;durP1;ratioP1;P2;durP2;ratioP2
19998;SDS011;10160;50.926;4.374;2023-09-19T00:00:37;16.35;;;2.92;;
19998;SDS011;10160;50.926;4.374;2023-09-19T00:03:03;12.73;;;1.95;;
19998;SDS011;10160;50.926;4.374;2023-09-19T00:05:33;9.20;;;2.15;;
19998;SDS011;10160;50.926;4.374;2023-09-19T00:08:00;14.75;;;2.55;;
19998;SDS011;10160;50.926;4.374;2023-09-19T00:10:30;14.25;;;2.00;;
19998;SDS011;10160;50.926;4.374;2023-09-19T00:13:00;11.27;;;2.05;;
19998;SDS011;10160;50.926;4.374;2023-09-19T00:15:30;12.45;;;2.03;;
19998;SDS011;10160;50.926;4.374;2023-09-19T00:18:00;12.98;;;2.33;;
19998;SDS011;10160;50.926;4.374;2023-09-19T00:20:35;13.00;;;3.03;;
19998;SDS011;10160;50.926;4.374;2023-09-19T00:23:01;12.27;;;2.15;;
19998;SDS011;10160;50.926;4.374;2023-09-19T00:25:29;10.40;;;1.92;;
19998;SDS011;10160;50.926;4.374;2023-09-19T00:27:55;13.05;;;2.45;;
19998;SDS011;10160;50.926;4.374;2023-09-19T00:30:20;16.30;;;2.50;;
19998;SDS011;10160;50.926;4.374;2023-09-19T00:32:46;18.03;;;2.33;;
19998;SDS011;10160;50.926;4.374;2023-09-19T00:35:15;15.95;;;2.30;;
19998;SDS011;10160;50.926;4.374;2023-09-19T00:37:42;10.82;;;2.50;;
19998;SDS011;10160;50.926;4.374;2023-09-19T00:40:08;13.77;;;2.15;;
19998;SDS011;10160;50.926;4.374;2023-09-19T00:42:47;19.35;;;2.95;;
19998;SDS011;10160;50.926;4.374;2023-09-19T00:45:14;16.00;;;2.50;;
19998;SDS011;10160;50.926;4.374;2023-09-19T00:47:45;11.43;;;2.20;;
19998;SDS011;10160;50.926;4.374;2023-09-19T00:50:14;19.67;;;2.90;;
19998;SDS011;10160;50.926;4.374;2023-09-19T00:52:42;11.07;;;2.47;;
19998;SDS011;10160;50.926;4.374;2023-09-19T00:55:09;13.23;;;2.45;;
19998;SDS011;10160;50.926;4.374;2023-09-19T00:57:37;15.60;;;2.40;;
19998;SDS011;10160;50.926;4.374;2023-09-19T01:00:04;11.32;;;2.15;;
19998;SDS011;10160;50.926;4.374;2023-09-19T01:02:32;15.25;;;2.47;;
19998;SDS011;10160;50.926;4.374;2023-09-19T01:04:59;20.33;;;2.65;;
19998;SDS011;10160;50.926;4.374;2023-09-19T01:07:26;15.32;;;2.92;;
19998;SDS011;10160;50.926;4.374;2023-09-19T01:09:55;16.08;;;2.38;;
19998;SDS011;10160;50.926;4.374;2023-09-19T01:12:28;10.10;;;2.03;;
19998;SDS011;10160;50.926;4.374;2023-09-19T01:15:11;14.45;;;2.58;;
19998;SDS011;10160;50.926;4.374;2023-09-19T01:18:21;11.65;;;2.47;;
19998;SDS011;10160;50.926;4.374;2023-09-19T01:23:50;12.15;;;2.65;;
19998;SDS011;10160;50.926;4.374;2023-09-19T01:29:44;11.38;;;1.98;;
19998;SDS011;10160;50.926;4.374;2023-09-19T01:32:14;12.63;;;2.35;;
19998;SDS011;10160;50.926;4.374;2023-09-19T01:34:56;15.65;;;2.40;;
19998;SDS011;10160;50.926;4.374;2023-09-19T01:37:30;15.40;;;2.35;;
19998;SDS011;10160;50.926;4.374;2023-09-19T01:39:57;13.00;;;2.30;;
19998;SDS011;10160;50.926;4.374;2023-09-19T01:42:35;12.52;;;2.22;;
19998;SDS011;10160;50.926;4.374;2023-09-19T01:48:19;23.27;;;3.38;;
19998;SDS011;10160;50.926;4.374;2023-09-19T01:53:26;10.38;;;2.30;;
19998;SDS011;10160;50.926;4.374;2023-09-19T01:55:53;17.60;;;2.60;;
19998;SDS011;10160;50.926;4.374;2023-09-19T01:58:27;21.27;;;2.80;;
19998;SDS011;10160;50.926;4.374;2023-09-19T02:00:55;17.65;;;2.45;;
19998;SDS011;10160;50.926;4.374;2023-09-19T02:03:23;12.38;;;2.38;;
19998;SDS011;10160;50.926;4.374;2023-09-19T02:05:52;12.73;;;2.58;;
19998;SDS011;10160;50.926;4.374;2023-09-19T02:08:19;17.35;;;3.03;;
19998;SDS011;10160;50.926;4.374;2023-09-19T02:10:48;15.67;;;2.73;;
19998;SDS011;10160;50.926;4.374;2023-09-19T02:13:15;15.27;;;2.60;;
19998;SDS011;10160;50.926;4.374;2023-09-19T02:15:52;13.20;;;2.13;;
19998;SDS011;10160;50.926;4.374;2023-09-19T02:18:18;11.40;;;3.38;;
19998;SDS011;10160;50.926;4.374;2023-09-19T02:20:44;11.37;;;2.57;;
19998;SDS011;10160;50.926;4.374;2023-09-19T02:23:10;16.67;;;2.97;;
19998;SDS011;10160;50.926;4.374;2023-09-19T02:25:37;11.77;;;2.45;;
19998;SDS011;10160;50.926;4.374;2023-09-19T02:28:08;16.43;;;3.00;;
19998;SDS011;10160;50.926;4.374;2023-09-19T02:30:34;14.40;;;1.98;;
19998;SDS011;10160;50.926;4.374;2023-09-19T02:33:01;16.97;;;2.37;;
19998;SDS011;10160;50.926;4.374;2023-09-19T02:35:27;15.50;;;2.53;;
19998;SDS011;10160;50.926;4.374;2023-09-19T02:37:53;14.97;;;2.83;;
19998;SDS011;10160;50.926;4.374;2023-09-19T02:40:19;10.10;;;2.03;;
19998;SDS011;10160;50.926;4.374;2023-09-19T02:42:45;15.10;;;2.28;;
19998;SDS011;10160;50.926;4.374;2023-09-19T02:45:15;13.27;;;2.80;;
19998;SDS011;10160;50.926;4.374;2023-09-19T02:47:42;11.33;;;2.83;;
19998;SDS011;10160;50.926;4.374;2023-09-19T02:50:09;9.88;;;1.80;;
19998;SDS011;10160;50.926;4.374;2023-09-19T02:52:38;15.57;;;2.50;;
19998;SDS011;10160;50.926;4.374;2023-09-19T02:55:08;13.05;;;2.58;;
19998;SDS011;10160;50.926;4.374;2023-09-19T02:57:35;12.98;;;1.67;;
19998;SDS011;10160;50.926;4.374;2023-09-19T03:00:05;15.05;;;2.35;;
19998;SDS011;10160;50.926;4.374;2023-09-19T03:02:37;17.02;;;3.28;;
19998;SDS011;10160;50.926;4.374;2023-09-19T03:05:05;12.00;;;2.00;;
19998;SDS011;10160;50.926;4.374;2023-09-19T03:07:31;11.03;;;2.20;;
19998;SDS011;10160;50.926;4.374;2023-09-19T03:09:56;18.43;;;1.93;;
19998;SDS011;10160;50.926;4.374;2023-09-19T03:12:22;14.00;;;1.90;;
19998;SDS011;10160;50.926;4.374;2023-09-19T03:14:48;10.37;;;1.87;;
19998;SDS011;10160;50.926;4.374;2023-09-19T03:17:15;11.50;;;1.90;;
19998;SDS011;10160;50.926;4.374;2023-09-19T03:19:41;20.57;;;2.77;;
19998;SDS011;10160;50.926;4.374;2023-09-19T03:22:07;15.57;;;2.63;;
19998;SDS011;10160;50.926;4.374;2023-09-19T03:24:32;16.00;;;2.58;;
19998;SDS011;10160;50.926;4.374;2023-09-19T03:27:00;14.03;;;2.20;;
19998;SDS011;10160;50.926;4.374;2023-09-19T03:29:26;14.47;;;2.27;;
19998;SDS011;10160;50.926;4.374;2023-09-19T03:31:52;11.40;;;2.42;;
19998;SDS011;10160;50.926;4.374;2023-09-19T03:34:19;9.88;;;2.13;;
19998;SDS011;10160;50.926;4.374;2023-09-19T03:36:45;9.40;;;1.70;;
19998;SDS011;10160;50.926;4.374;2023-09-19T03:39:11;20.33;;;2.73;;
19998;SDS011;10160;50.926;4.374;2023-09-19T03:41:37;12.07;;;2.30;;
19998;SDS011;10160;50.926;4.374;2023-09-19T03:44:02;14.00;;;2.20;;
19998;SDS011;10160;50.926;4.374;2023-09-19T03:46:28;14.60;;;2.83;;
19998;SDS011;10160;50.926;4.374;2023-09-19T03:48:55;11.87;;;2.47;;
19998;SDS011;10160;50.926;4.374;2023-09-19T03:51:20;25.17;;;2.95;;
19998;SDS011;10160;50.926;4.374;2023-09-19T03:53:46;16.07;;;2.73;;
19998;SDS011;10160;50.926;4.374;2023-09-19T03:56:14;17.70;;;1.97;;
19998;SDS011;10160;50.926;4.374;2023-09-19T03:58:39;13.52;;;3.03;;
19998;SDS011;10160;50.926;4.374;2023-09-19T04:01:05;21.73;;;2.80;;
19998;SDS011;10160;50.926;4.374;2023-09-19T04:03:34;11.63;;;2.07;;
19998;SDS011;10160;50.926;4.374;2023-09-19T04:06:11;12.40;;;2.40;;
19998;SDS011;10160;50.926;4.374;2023-09-19T04:08:40;23.07;;;2.60;;
19998;SDS011;10160;50.926;4.374;2023-09-19T04:11:05;13.33;;;2.77;;
19998;SDS011;10160;50.926;4.374;2023-09-19T04:13:31;12.60;;;2.67;;
19998;SDS011;10160;50.926;4.374;2023-09-19T04:15:57;12.30;;;3.13;;
19998;SDS011;10160;50.926;4.374;2023-09-19T04:18:22;12.70;;;2.87;;
19998;SDS011;10160;50.926;4.374;2023-09-19T04:20:49;17.80;;;2.63;;
19998;SDS011;10160;50.926;4.374;2023-09-19T04:23:15;11.20;;;2.37;;
19998;SDS011;10160;50.926;4.374;2023-09-19T04:25:42;13.30;;;2.20;;
19998;SDS011;10160;50.926;4.374;2023-09-19T04:28:08;13.90;;;2.40;;
19998;SDS011;10160;50.926;4.374;2023-09-19T04:30:36;15.30;;;2.40;;
19998;SDS011;10160;50.926;4.374;2023-09-19T04:33:07;12.80;;;2.07;;
19998;SDS011;10160;50.926;4.374;2023-09-19T04:35:33;16.83;;;2.87;;
19998;SDS011;10160;50.926;4.374;2023-09-19T04:38:00;16.20;;;2.47;;
19998;SDS011;10160;50.926;4.374;2023-09-19T04:40:28;24.23;;;3.20;;
19998;SDS011;10160;50.926;4.374;2023-09-19T04:42:54;15.63;;;2.40;;
19998;SDS011;10160;50.926;4.374;2023-09-19T04:45:22;17.20;;;2.67;;
19998;SDS011;10160;50.926;4.374;2023-09-19T04:47:48;17.77;;;2.57;;
19998;SDS011;10160;50.926;4.374;2023-09-19T04:50:13;17.93;;;3.03;;
19998;SDS011;10160;50.926;4.374;2023-09-19T04:52:40;15.50;;;2.70;;
19998;SDS011;10160;50.926;4.374;2023-09-19T04:55:08;15.63;;;2.53;;
19998;SDS011;10160;50.926;4.374;2023-09-19T04:57:51;10.13;;;2.00;;
19998;SDS011;10160;50.926;4.374;2023-09-19T05:00:19;10.83;;;2.20;;
19998;SDS011;10160;50.926;4.374;2023-09-19T05:02:49;16.37;;;2.73;;
19998;SDS011;10160;50.926;4.374;2023-09-19T05:05:16;11.00;;;2.93;;
19998;SDS011;10160;50.926;4.374;2023-09-19T05:07:42;13.33;;;2.77;;
19998;SDS011;10160;50.926;4.374;2023-09-19T05:10:09;13.20;;;2.20;;
19998;SDS011;10160;50.926;4.374;2023-09-19T05:12:35;19.43;;;2.83;;
19998;SDS011;10160;50.926;4.374;2023-09-19T05:15:07;13.47;;;2.40;;
19998;SDS011;10160;50.926;4.374;2023-09-19T05:17:33;11.73;;;2.10;;
19998;SDS011;10160;50.926;4.374;2023-09-19T05:20:00;8.97;;;1.90;;
19998;SDS011;10160;50.926;4.374;2023-09-19T05:22:30;15.27;;;3.20;;
19998;SDS011;10160;50.926;4.374;2023-09-19T05:24:57;14.37;;;2.90;;
19998;SDS011;10160;50.926;4.374;2023-09-19T05:27:23;14.40;;;2.30;;
19998;SDS011;10160;50.926;4.374;2023-09-19T05:29:49;14.77;;;2.20;;
19998;SDS011;10160;50.926;4.374;2023-09-19T05:32:18;15.47;;;3.47;;
19998;SDS011;10160;50.926;4.374;2023-09-19T05:34:44;13.27;;;2.57;;
19998;SDS011;10160;50.926;4.374;2023-09-19T05:37:12;11.00;;;1.90;;
19998;SDS011;10160;50.926;4.374;2023-09-19T05:39:38;15.03;;;2.17;;
19998;SDS011;10160;50.926;4.374;2023-09-19T05:42:04;16.97;;;3.70;;
19998;SDS011;10160;50.926;4.374;2023-09-19T05:44:29;10.93;;;2.20;;
19998;SDS011;10160;50.926;4.374;2023-09-19T05:46:56;11.87;;;2.90;;
19998;SDS011;10160;50.926;4.374;2023-09-19T05:49:22;15.30;;;2.73;;
19998;SDS011;10160;50.926;4.374;2023-09-19T05:51:49;11.53;;;1.93;;
19998;SDS011;10160;50.926;4.374;2023-09-19T05:54:15;15.17;;;2.67;;
19998;SDS011;10160;50.926;4.374;2023-09-19T05:56:43;15.50;;;2.30;;
19998;SDS011;10160;50.926;4.374;2023-09-19T05:59:11;12.00;;;2.57;;
19998;SDS011;10160;50.926;4.374;2023-09-19T06:01:39;11.67;;;2.27;;
19998;SDS011;10160;50.926;4.374;2023-09-19T06:04:04;14.07;;;2.53;;
19998;SDS011;10160;50.926;4.374;2023-09-19T06:06:30;15.40;;;2.73;;
19998;SDS011;10160;50.926;4.374;2023-09-19T06:08:56;14.93;;;2.33;;
19998;SDS011;10160;50.926;4.374;2023-09-19T06:11:22;16.07;;;2.97;;
19998;SDS011;10160;50.926;4.374;2023-09-19T06:13:51;16.03;;;2.53;;
19998;SDS011;10160;50.926;4.374;2023-09-19T06:16:18;7.03;;;2.00;;
19998;SDS011;10160;50.926;4.374;2023-09-19T06:18:44;15.10;;;2.53;;
19998;SDS011;10160;50.926;4.374;2023-09-19T06:21:10;12.40;;;2.40;;
19998;SDS011;10160;50.926;4.374;2023-09-19T06:23:36;16.23;;;2.40;;
19998;SDS011;10160;50.926;4.374;2023-09-19T06:26:01;18.50;;;2.47;;
19998;SDS011;10160;50.926;4.374;2023-09-19T06:28:31;16.17;;;2.33;;
19998;SDS011;10160;50.926;4.374;2023-09-19T06:30:58;13.23;;;2.20;;
19998;SDS011;10160;50.926;4.374;2023-09-19T06:33:24;15.93;;;2.70;;
19998;SDS011;10160;50.926;4.374;2023-09-19T06:35:50;7.70;;;2.03;;
19998;SDS011;10160;50.926;4.374;2023-09-19T06:38:17;11.53;;;1.93;;
19998;SDS011;10160;50.926;4.374;2023-09-19T06:40:44;13.83;;;2.40;;
19998;SDS011;10160;50.926;4.374;2023-09-19T06:43:10;16.67;;;2.40;;
19998;SDS011;10160;50.926;4.374;2023-09-19T06:45:36;15.33;;;2.47;;
19998;SDS011;10160;50.926;4.374;2023-09-19T06:48:02;10.13;;;2.33;;
19998;SDS011;10160;50.926;4.374;2023-09-19T06:50:28;16.37;;;3.30;;
19998;SDS011;10160;50.926;4.374;2023-09-19T06:52:55;14.03;;;2.27;;
19998;SDS011;10160;50.926;4.374;2023-09-19T06:55:24;13.43;;;2.67;;
19998;SDS011;10160;50.926;4.374;2023-09-19T06:57:52;11.52;;;2.22;;
19998;SDS011;10160;50.926;4.374;2023-09-19T07:00:19;12.10;;;2.90;;
19998;SDS011;10160;50.926;4.374;2023-09-19T07:02:56;13.90;;;2.60;;
19998;SDS011;10160;50.926;4.374;2023-09-19T07:05:33;13.35;;;2.08;;
19998;SDS011;10160;50.926;4.374;2023-09-19T07:08:02;14.03;;;2.93;;
19998;SDS011;10160;50.926;4.374;2023-09-19T07:10:34;9.27;;;2.00;;
19998;SDS011;10160;50.926;4.374;2023-09-19T07:13:01;12.10;;;2.97;;
19998;SDS011;10160;50.926;4.374;2023-09-19T07:15:28;11.35;;;2.30;;
19998;SDS011;10160;50.926;4.374;2023-09-19T07:17:56;13.45;;;2.53;;
19998;SDS011;10160;50.926;4.374;2023-09-19T07:20:22;17.70;;;2.17;;
19998;SDS011;10160;50.926;4.374;2023-09-19T07:22:51;11.73;;;2.22;;
19998;SDS011;10160;50.926;4.374;2023-09-19T07:25:17;15.13;;;2.50;;
19998;SDS011;10160;50.926;4.374;2023-09-19T07:27:43;14.53;;;2.30;;
19998;SDS011;10160;50.926;4.374;2023-09-19T07:30:10;12.80;;;1.90;;
19998;SDS011;10160;50.926;4.374;2023-09-19T07:32:37;15.43;;;2.70;;
19998;SDS011;10160;50.926;4.374;2023-09-19T07:35:03;10.13;;;2.40;;
19998;SDS011;10160;50.926;4.374;2023-09-19T07:37:33;16.10;;;2.33;;
19998;SDS011;10160;50.926;4.374;2023-09-19T07:39:59;18.90;;;2.70;;
19998;SDS011;10160;50.926;4.374;2023-09-19T07:42:37;11.18;;;2.45;;
19998;SDS011;10160;50.926;4.374;2023-09-19T07:45:05;13.95;;;2.78;;
19998;SDS011;10160;50.926;4.374;2023-09-19T07:47:32;12.45;;;2.97;;
19998;SDS011;10160;50.926;4.374;2023-09-19T07:50:01;11.13;;;1.67;;
19998;SDS011;10160;50.926;4.374;2023-09-19T07:52:28;12.15;;;2.40;;
19998;SDS011;10160;50.926;4.374;2023-09-19T07:54:54;12.57;;;2.38;;
19998;SDS011;10160;50.926;4.374;2023-09-19T07:57:22;17.38;;;2.83;;
19998;SDS011;10160;50.926;4.374;2023-09-19T07:59:47;9.98;;;2.83;;
19998;SDS011;10160;50.926;4.374;2023-09-19T08:02:13;11.75;;;2.10;;
19998;SDS011;10160;50.926;4.374;2023-09-19T08:04:43;13.70;;;3.25;;
19998;SDS011;10160;50.926;4.374;2023-09-19T08:07:11;15.30;;;2.30;;
19998;SDS011;10160;50.926;4.374;2023-09-19T08:09:38;11.63;;;1.83;;
19998;SDS011;10160;50.926;4.374;2023-09-19T08:12:05;14.30;;;2.38;;
19998;SDS011;10160;50.926;4.374;2023-09-19T08:14:33;12.77;;;2.50;;
19998;SDS011;10160;50.926;4.374;2023-09-19T08:16:59;8.75;;;1.98;;
19998;SDS011;10160;50.926;4.374;2023-09-19T08:19:25;12.27;;;2.05;;
19998;SDS011;10160;50.926;4.374;2023-09-19T08:21:56;8.63;;;2.05;;
19998;SDS011;10160;50.926;4.374;2023-09-19T08:24:28;17.92;;;2.75;;
19998;SDS011;10160;50.926;4.374;2023-09-19T08:26:55;14.93;;;2.33;;
19998;SDS011;10160;50.926;4.374;2023-09-19T08:29:21;15.15;;;2.22;;
19998;SDS011;10160;50.926;4.374;2023-09-19T08:31:55;13.07;;;2.72;;
19998;SDS011;10160;50.926;4.374;2023-09-19T08:34:24;12.60;;;2.03;;
19998;SDS011;10160;50.926;4.374;2023-09-19T08:36:51;15.23;;;3.03;;
19998;SDS011;10160;50.926;4.374;2023-09-19T08:39:18;19.63;;;3.05;;
19998;SDS011;10160;50.926;4.374;2023-09-19T08:41:44;14.43;;;3.25;;
19998;SDS011;10160;50.926;4.374;2023-09-19T08:44:10;19.75;;;3.20;;
19998;SDS011;10160;50.926;4.374;2023-09-19T08:46:35;15.63;;;2.83;;
19998;SDS011;10160;50.926;4.374;2023-09-19T08:49:09;18.48;;;2.83;;
19998;SDS011;10160;50.926;4.374;2023-09-19T08:52:03;11.25;;;2.25;;
19998;SDS011;10160;50.926;4.374;2023-09-19T08:54:37;21.60;;;3.40;;
19998;SDS011;10160;50.926;4.374;2023-09-19T08:57:05;14.15;;;2.10;;
19998;SDS011;10160;50.926;4.374;2023-09-19T08:59:37;10.90;;;2.40;;
19998;SDS011;10160;50.926;4.374;2023-09-19T09:02:10;17.25;;;2.30;;
19998;SDS011;10160;50.926;4.374;2023-09-19T09:04:40;7.47;;;2.05;;
19998;SDS011;10160;50.926;4.374;2023-09-19T09:07:11;11.32;;;1.92;;
19998;SDS011;10160;50.926;4.374;2023-09-19T09:09:38;9.35;;;1.98;;
19998;SDS011;10160;50.926;4.374;2023-09-19T09:12:08;14.48;;;2.60;;
19998;SDS011;10160;50.926;4.374;2023-09-19T09:14:47;14.88;;;2.90;;
19998;SDS011;10160;50.926;4.374;2023-09-19T09:17:16;10.45;;;1.83;;
19998;SDS011;10160;50.926;4.374;2023-09-19T09:19:45;12.30;;;1.90;;
19998;SDS011;10160;50.926;4.374;2023-09-19T09:22:12;8.27;;;1.52;;
19998;SDS011;10160;50.926;4.374;2023-09-19T09:24:39;14.32;;;1.70;;
19998;SDS011;10160;50.926;4.374;2023-09-19T09:27:18;13.80;;;1.95;;
19998;SDS011;10160;50.926;4.374;2023-09-19T09:32:23;10.68;;;1.92;;
19998;SDS011;10160;50.926;4.374;2023-09-19T09:34:57;15.18;;;1.85;;
19998;SDS011;10160;50.926;4.374;2023-09-19T09:37:29;14.77;;;2.67;;
19998;SDS011;10160;50.926;4.374;2023-09-19T09:39:56;10.70;;;2.17;;
19998;SDS011;10160;50.926;4.374;2023-09-19T09:42:30;8.93;;;1.70;;
19998;SDS011;10160;50.926;4.374;2023-09-19T09:47:58;12.13;;;1.75;;
19998;SDS011;10160;50.926;4.374;2023-09-19T09:50:46;10.40;;;2.20;;
19998;SDS011;10160;50.926;4.374;2023-09-19T09:53:24;6.82;;;1.27;;
19998;SDS011;10160;50.926;4.374;2023-09-19T09:56:03;7.85;;;2.03;;
19998;SDS011;10160;50.926;4.374;2023-09-19T09:58:37;10.80;;;2.10;;
19998;SDS011;10160;50.926;4.374;2023-09-19T10:01:14;13.35;;;1.95;;
19998;SDS011;10160;50.926;4.374;2023-09-19T10:03:41;10.25;;;1.98;;
19998;SDS011;10160;50.926;4.374;2023-09-19T10:06:14;7.03;;;1.42;;
19998;SDS011;10160;50.926;4.374;2023-09-19T10:11:30;7.95;;;1.60;;
19998;SDS011;10160;50.926;4.374;2023-09-19T10:13:57;9.68;;;1.73;;
19998;SDS011;10160;50.926;4.374;2023-09-19T10:16:26;10.52;;;1.20;;
19998;SDS011;10160;50.926;4.374;2023-09-19T10:18:56;14.93;;;2.35;;
19998;SDS011;10160;50.926;4.374;2023-09-19T10:21:27;7.50;;;1.67;;
19998;SDS011;10160;50.926;4.374;2023-09-19T10:23:55;11.90;;;1.50;;
19998;SDS011;10160;50.926;4.374;2023-09-19T10:26:25;12.07;;;1.60;;
19998;SDS011;10160;50.926;4.374;2023-09-19T10:28:59;8.57;;;1.50;;
19998;SDS011;10160;50.926;4.374;2023-09-19T10:31:29;5.63;;;1.05;;
19998;SDS011;10160;50.926;4.374;2023-09-19T10:33:58;7.82;;;1.15;;
19998;SDS011;10160;50.926;4.374;2023-09-19T10:36:28;8.38;;;1.40;;
19998;SDS011;10160;50.926;4.374;2023-09-19T10:39:01;9.35;;;1.45;;
19998;SDS011;10160;50.926;4.374;2023-09-19T10:41:31;10.40;;;1.48;;
19998;SDS011;10160;50.926;4.374;2023-09-19T10:44:02;10.13;;;1.27;;
19998;SDS011;10160;50.926;4.374;2023-09-19T10:46:34;5.03;;;0.90;;
19998;SDS011;10160;50.926;4.374;2023-09-19T10:49:05;12.07;;;1.90;;
19998;SDS011;10160;50.926;4.374;2023-09-19T10:51:31;7.88;;;0.98;;
19998;SDS011;10160;50.926;4.374;2023-09-19T10:54:08;4.10;;;1.00;;
19998;SDS011;10160;50.926;4.374;2023-09-19T10:56:38;4.40;;;1.33;;
19998;SDS011;10160;50.926;4.374;2023-09-19T10:59:13;6.22;;;1.33;;
19998;SDS011;10160;50.926;4.374;2023-09-19T11:01:54;4.00;;;0.65;;
19998;SDS011;10160;50.926;4.374;2023-09-19T11:04:28;7.30;;;0.95;;
19998;SDS011;10160;50.926;4.374;2023-09-19T11:07:08;5.60;;;0.90;;
19998;SDS011;10160;50.926;4.374;2023-09-19T11:09:49;10.23;;;1.08;;
19998;SDS011;10160;50.926;4.374;2023-09-19T11:14:54;6.28;;;1.10;;
19998;SDS011;10160;50.926;4.374;2023-09-19T11:17:30;6.80;;;0.70;;
19998;SDS011;10160;50.926;4.374;2023-09-19T11:30:37;7.68;;;1.27;;
19998;SDS011;10160;50.926;4.374;2023-09-19T11:36:01;6.93;;;1.00;;
19998;SDS011;10160;50.926;4.374;2023-09-19T11:46:29;10.63;;;1.20;;
19998;SDS011;10160;50.926;4.374;2023-09-19T11:49:05;6.15;;;0.90;;
19998;SDS011;10160;50.926;4.374;2023-09-19T11:51:47;5.13;;;1.02;;
19998;SDS011;10160;50.926;4.374;2023-09-19T11:54:15;5.15;;;0.90;;
19998;SDS011;10160;50.926;4.374;2023-09-19T11:56:43;7.68;;;1.13;;
19998;SDS011;10160;50.926;4.374;2023-09-19T11:59:29;5.63;;;1.27;;
19998;SDS011;10160;50.926;4.374;2023-09-19T12:02:04;5.93;;;0.90;;
19998;SDS011;10160;50.926;4.374;2023-09-19T12:04:34;8.02;;;1.08;;
19998;SDS011;10160;50.926;4.374;2023-09-19T12:07:08;6.35;;;0.90;;
19998;SDS011;10160;50.926;4.374;2023-09-19T12:10:02;3.13;;;0.73;;
19998;SDS011;10160;50.926;4.374;2023-09-19T12:12:29;10.00;;;1.10;;
19998;SDS011;10160;50.926;4.374;2023-09-19T12:14:56;7.88;;;1.30;;
19998;SDS011;10160;50.926;4.374;2023-09-19T12:17:37;9.18;;;1.10;;
19998;SDS011;10160;50.926;4.374;2023-09-19T12:20:04;4.15;;;0.85;;
19998;SDS011;10160;50.926;4.374;2023-09-19T12:22:43;6.28;;;1.15;;
19998;SDS011;10160;50.926;4.374;2023-09-19T12:25:11;4.57;;;1.02;;
19998;SDS011;10160;50.926;4.374;2023-09-19T12:27:44;7.57;;;1.27;;
19998;SDS011;10160;50.926;4.374;2023-09-19T12:30:29;4.43;;;1.00;;
19998;SDS011;10160;50.926;4.374;2023-09-19T12:32:58;5.65;;;1.02;;
19998;SDS011;10160;50.926;4.374;2023-09-19T12:35:27;4.90;;;0.82;;
19998;SDS011;10160;50.926;4.374;2023-09-19T12:37:58;5.72;;;0.90;;
19998;SDS011;10160;50.926;4.374;2023-09-19T12:40:24;7.38;;;1.30;;
19998;SDS011;10160;50.926;4.374;2023-09-19T12:42:56;7.15;;;0.88;;
19998;SDS011;10160;50.926;4.374;2023-09-19T12:45:23;5.70;;;1.00;;
19998;SDS011;10160;50.926;4.374;2023-09-19T12:51:03;10.70;;;1.00;;
19998;SDS011;10160;50.926;4.374;2023-09-19T12:53:35;7.45;;;1.35;;
19998;SDS011;10160;50.926;4.374;2023-09-19T12:56:20;6.20;;;1.20;;
19998;SDS011;10160;50.926;4.374;2023-09-19T12:58:55;7.35;;;1.40;;
19998;SDS011;10160;50.926;4.374;2023-09-19T13:01:22;5.82;;;1.00;;
19998;SDS011;10160;50.926;4.374;2023-09-19T13:04:11;9.63;;;1.73;;
19998;SDS011;10160;50.926;4.374;2023-09-19T13:06:38;5.30;;;1.33;;
19998;SDS011;10160;50.926;4.374;2023-09-19T13:09:11;6.55;;;1.17;;
19998;SDS011;10160;50.926;4.374;2023-09-19T13:11:44;5.57;;;1.02;;
19998;SDS011;10160;50.926;4.374;2023-09-19T13:16:55;6.20;;;1.15;;
19998;SDS011;10160;50.926;4.374;2023-09-19T13:25:12;5.15;;;1.02;;
19998;SDS011;10160;50.926;4.374;2023-09-19T13:27:46;12.50;;;1.83;;
19998;SDS011;10160;50.926;4.374;2023-09-19T13:30:19;4.05;;;1.30;;
19998;SDS011;10160;50.926;4.374;2023-09-19T13:32:46;4.25;;;0.73;;
19998;SDS011;10160;50.926;4.374;2023-09-19T13:35:13;8.07;;;1.35;;
19998;SDS011;10160;50.926;4.374;2023-09-19T13:37:40;5.03;;;1.10;;
19998;SDS011;10160;50.926;4.374;2023-09-19T13:40:14;6.80;;;0.90;;
19998;SDS011;10160;50.926;4.374;2023-09-19T13:42:40;4.15;;;0.88;;
19998;SDS011;10160;50.926;4.374;2023-09-19T13:45:06;7.32;;;1.10;;
19998;SDS011;10160;50.926;4.374;2023-09-19T13:47:34;4.45;;;1.05;;
19998;SDS011;10160;50.926;4.374;2023-09-19T13:50:03;5.88;;;1.13;;
19998;SDS011;10160;50.926;4.374;2023-09-19T13:52:29;6.97;;;1.10;;
19998;SDS011;10160;50.926;4.374;2023-09-19T13:54:56;5.60;;;1.13;;
19998;SDS011;10160;50.926;4.374;2023-09-19T13:57:25;6.03;;;1.30;;
19998;SDS011;10160;50.926;4.374;2023-09-19T13:59:52;7.03;;;1.33;;
19998;SDS011;10160;50.926;4.374;2023-09-19T14:02:21;4.25;;;1.00;;
19998;SDS011;10160;50.926;4.374;2023-09-19T14:04:50;7.10;;;1.30;;
19998;SDS011;10160;50.926;4.374;2023-09-19T14:07:20;4.63;;;1.02;;
19998;SDS011;10160;50.926;4.374;2023-09-19T14:09:46;2.10;;;0.52;;
19998;SDS011;10160;50.926;4.374;2023-09-19T14:12:12;7.35;;;1.50;;
19998;SDS011;10160;50.926;4.374;2023-09-19T14:14:39;8.32;;;1.20;;
19998;SDS011;10160;50.926;4.374;2023-09-19T14:17:04;6.15;;;1.48;;
19998;SDS011;10160;50.926;4.374;2023-09-19T14:19:32;4.32;;;1.30;;
19998;SDS011;10160;50.926;4.374;2023-09-19T14:21:58;6.68;;;1.73;;
19998;SDS011;10160;50.926;4.374;2023-09-19T14:24:25;8.13;;;1.90;;
19998;SDS011;10160;50.926;4.374;2023-09-19T14:26:50;6.18;;;1.45;;
19998;SDS011;10160;50.926;4.374;2023-09-19T14:29:16;6.70;;;1.20;;
19998;SDS011;10160;50.926;4.374;2023-09-19T14:31:42;5.00;;;1.00;;
19998;SDS011;10160;50.926;4.374;2023-09-19T14:34:08;5.95;;;1.23;;
19998;SDS011;10160;50.926;4.374;2023-09-19T14:36:37;5.85;;;1.23;;
19998;SDS011;10160;50.926;4.374;2023-09-19T14:39:03;8.02;;;1.35;;
19998;SDS011;10160;50.926;4.374;2023-09-19T14:41:29;7.30;;;1.10;;
19998;SDS011;10160;50.926;4.374;2023-09-19T14:43:56;4.93;;;1.50;;
19998;SDS011;10160;50.926;4.374;2023-09-19T14:46:22;7.38;;;1.42;;
19998;SDS011;10160;50.926;4.374;2023-09-19T14:48:50;9.50;;;1.38;;
19998;SDS011;10160;50.926;4.374;2023-09-19T14:51:17;5.45;;;1.30;;
19998;SDS011;10160;50.926;4.374;2023-09-19T14:53:44;6.57;;;1.20;;
19998;SDS011;10160;50.926;4.374;2023-09-19T14:56:11;3.63;;;1.02;;
19998;SDS011;10160;50.926;4.374;2023-09-19T14:58:38;11.73;;;1.63;;
19998;SDS011;10160;50.926;4.374;2023-09-19T15:01:11;3.63;;;1.00;;
19998;SDS011;10160;50.926;4.374;2023-09-19T15:03:38;6.35;;;1.35;;
19998;SDS011;10160;50.926;4.374;2023-09-19T15:06:05;5.35;;;1.17;;
19998;SDS011;10160;50.926;4.374;2023-09-19T15:08:41;10.25;;;1.60;;
19998;SDS011;10160;50.926;4.374;2023-09-19T15:11:12;5.47;;;1.63;;
19998;SDS011;10160;50.926;4.374;2023-09-19T15:13:41;9.23;;;1.63;;
19998;SDS011;10160;50.926;4.374;2023-09-19T15:16:07;6.43;;;2.13;;
19998;SDS011;10160;50.926;4.374;2023-09-19T15:18:34;7.30;;;1.70;;
19998;SDS011;10160;50.926;4.374;2023-09-19T15:21:04;6.13;;;1.48;;
19998;SDS011;10160;50.926;4.374;2023-09-19T15:23:30;13.38;;;2.30;;
19998;SDS011;10160;50.926;4.374;2023-09-19T15:25:59;9.40;;;1.60;;
19998;SDS011;10160;50.926;4.374;2023-09-19T15:28:35;7.72;;;1.98;;
19998;SDS011;10160;50.926;4.374;2023-09-19T15:31:02;9.07;;;1.92;;
19998;SDS011;10160;50.926;4.374;2023-09-19T15:33:46;8.60;;;2.00;;
19998;SDS011;10160;50.926;4.374;2023-09-19T15:36:12;6.95;;;1.63;;
19998;SDS011;10160;50.926;4.374;2023-09-19T15:41:29;9.95;;;1.80;;
19998;SDS011;10160;50.926;4.374;2023-09-19T15:43:56;7.57;;;1.48;;
19998;SDS011;10160;50.926;4.374;2023-09-19T15:46:24;6.65;;;1.55;;
19998;SDS011;10160;50.926;4.374;2023-09-19T15:48:52;10.88;;;1.80;;